createdAt,value
2019-03-31T00:00:06.509Z,95466.48
2019-03-31T00:02:34.516Z,95461.81
2019-03-31T00:05:02.572Z,95470.57
2019-03-31T00:07:30.618Z,95478.59
2019-03-31T00:09:58.532Z,95465.92
2019-03-31T00:12:26.536Z,95470.00
2019-03-31T00:14:54.542Z,95463.89
2019-03-31T00:17:22.521Z,95461.53
2019-03-31T00:19:50.513Z,95464.50
2019-03-31T00:22:18.499Z,95459.12
2019-03-31T00:24:46.496Z,95460.75
2019-03-31T00:27:14.531Z,95445.97
2019-03-31T00:29:42.612Z,95447.56
2019-03-31T00:32:10.599Z,95457.61
2019-03-31T00:34:38.519Z,95448.74
2019-03-31T00:37:07.829Z,95446.98
2019-03-31T00:39:36.129Z,95449.08
2019-03-31T00:42:04.337Z,95443.91
2019-03-31T00:44:32.367Z,95447.34
2019-03-31T00:47:02.190Z,95437.81
2019-03-31T00:49:30.536Z,95440.09
2019-03-31T00:51:58.698Z,95448.45
2019-03-31T00:54:27.905Z,95424.21
2019-03-31T00:56:56.130Z,95430.76
2019-03-31T00:59:24.198Z,95434.73
2019-03-31T01:01:59.104Z,95434.92
2019-03-31T01:04:29.493Z,95431.82
2019-03-31T01:06:57.814Z,95430.00
2019-03-31T01:09:31.817Z,95425.80
2019-03-31T01:12:01.119Z,95427.41
2019-03-31T01:14:29.775Z,95434.08
2019-03-31T01:16:58.691Z,95417.75
2019-03-31T01:19:27.266Z,95418.90
2019-03-31T01:21:55.381Z,95421.78
2019-03-31T01:24:23.674Z,95415.11
2019-03-31T01:26:51.852Z,95418.20
2019-03-31T01:29:20.299Z,95424.21
2019-03-31T01:31:50.773Z,95423.45
2019-03-31T01:34:18.954Z,95417.67
2019-03-31T01:36:47.010Z,95416.85
2019-03-31T01:39:15.306Z,95414.89
2019-03-31T01:41:43.285Z,95412.91
2019-03-31T01:44:11.225Z,95418.39
2019-03-31T01:46:39.216Z,95411.73
2019-03-31T01:49:07.349Z,95416.57
2019-03-31T01:51:35.455Z,95424.41
2019-03-31T01:54:03.882Z,95413.60
2019-03-31T01:56:31.891Z,95418.20
2019-03-31T01:58:59.866Z,95410.39
2019-03-31T02:01:28.009Z,95406.98
2019-03-31T02:03:56.130Z,95409.59
2019-03-31T02:06:24.181Z,95408.30
2019-03-31T02:08:52.177Z,95411.43
2019-03-31T02:11:20.161Z,95400.40
2019-03-31T02:13:48.157Z,95402.27
2019-03-31T02:16:16.190Z,95395.67
2019-03-31T02:18:44.141Z,95399.80
2019-03-31T02:21:12.129Z,95392.28
2019-03-31T02:23:40.199Z,95394.75
2019-03-31T02:26:08.297Z,95378.30
2019-03-31T02:28:36.423Z,95390.04
2019-03-31T02:31:04.517Z,95392.83
2019-03-31T02:33:32.498Z,95383.66
2019-03-31T02:36:00.407Z,95381.34
2019-03-31T02:38:28.539Z,95385.89
2019-03-31T02:40:56.770Z,95380.44
2019-03-31T02:43:24.709Z,95368.14
2019-03-31T02:45:52.701Z,95373.34
2019-03-31T02:48:20.740Z,95380.78
2019-03-31T02:50:50.176Z,95378.11
2019-03-31T02:53:19.808Z,95378.27
2019-03-31T02:55:48.140Z,95378.81
2019-03-31T02:58:17.407Z,95371.06
2019-03-31T03:00:45.529Z,95387.25
2019-03-31T03:03:16.060Z,95382.31
2019-03-31T03:05:44.664Z,95382.15
2019-03-31T03:08:13.604Z,95378.39
2019-03-31T03:10:43.309Z,95377.41
2019-03-31T03:13:13.859Z,95379.94
2019-03-31T03:16:13.122Z,95383.38
2019-03-31T03:18:41.350Z,95378.41
2019-03-31T03:21:09.310Z,95381.16
2019-03-31T03:23:37.289Z,95384.93
2019-03-31T03:26:05.992Z,95387.44
2019-03-31T03:28:34.550Z,95389.59
2019-03-31T03:31:02.978Z,95389.05
2019-03-31T03:33:31.236Z,95381.25
2019-03-31T03:35:59.166Z,95374.55
2019-03-31T03:38:27.273Z,95379.12
2019-03-31T03:40:55.216Z,95382.81
2019-03-31T03:43:23.261Z,95384.09
2019-03-31T03:45:51.289Z,95379.41
2019-03-31T03:48:19.285Z,95372.63
2019-03-31T03:50:47.313Z,95379.84
2019-03-31T03:53:15.399Z,95368.27
2019-03-31T03:55:43.401Z,95382.59
2019-03-31T03:58:11.325Z,95379.20
2019-03-31T04:00:39.329Z,95381.70
2019-03-31T04:03:07.318Z,95381.16
2019-03-31T04:05:35.266Z,95388.66
2019-03-31T04:08:03.288Z,95386.64
2019-03-31T04:11:14.488Z,95390.59
2019-03-31T04:13:42.554Z,95380.19
2019-03-31T04:16:10.518Z,95384.52
2019-03-31T04:18:38.505Z,95392.77
2019-03-31T04:21:06.617Z,95382.87
2019-03-31T04:23:34.554Z,95378.30
2019-03-31T04:26:02.582Z,95376.22
2019-03-31T04:28:30.667Z,95377.50
2019-03-31T04:30:58.599Z,95365.95
2019-03-31T04:33:26.770Z,95368.22
2019-03-31T04:35:54.802Z,95373.77
2019-03-31T04:38:22.738Z,95371.69
2019-03-31T04:40:50.729Z,95371.94
2019-03-31T04:43:18.727Z,95380.84
2019-03-31T04:45:46.676Z,95367.00
2019-03-31T04:48:14.708Z,95371.47
2019-03-31T04:50:42.732Z,95374.47
2019-03-31T04:53:10.736Z,95369.91
2019-03-31T04:55:38.669Z,95372.02
2019-03-31T04:58:06.730Z,95381.80
2019-03-31T05:00:34.694Z,95378.03
2019-03-31T05:03:02.822Z,95379.00
2019-03-31T05:05:30.772Z,95378.38
2019-03-31T05:07:58.757Z,95382.03
2019-03-31T05:10:26.746Z,95381.16
2019-03-31T05:12:54.782Z,95378.61
2019-03-31T05:15:22.836Z,95376.29
2019-03-31T05:17:50.876Z,95379.38
2019-03-31T05:20:18.887Z,95374.75
2019-03-31T05:22:46.929Z,95374.34
2019-03-31T05:25:14.939Z,95375.54
2019-03-31T05:27:42.959Z,95379.52
2019-03-31T05:30:11.259Z,95371.44
2019-03-31T05:32:39.205Z,95376.28
2019-03-31T05:35:07.529Z,95379.61
2019-03-31T05:37:49.976Z,95367.00
2019-03-31T05:40:05.563Z,95361.34
2019-03-31T05:42:33.541Z,95358.81
2019-03-31T05:45:01.564Z,95364.25
2019-03-31T05:47:29.578Z,95360.33
2019-03-31T05:49:57.564Z,95362.48
2019-03-31T05:52:25.600Z,95348.26
2019-03-31T05:54:53.619Z,95355.73
2019-03-31T05:57:21.669Z,95349.66
2019-03-31T05:59:49.646Z,95346.13
2019-03-31T06:02:17.618Z,95350.33
2019-03-31T06:04:45.659Z,95346.10
2019-03-31T06:07:13.663Z,95359.09
2019-03-31T06:09:41.691Z,95341.59
2019-03-31T06:12:09.623Z,95354.59
2019-03-31T06:14:37.634Z,95348.09
2019-03-31T06:17:05.744Z,95345.27
2019-03-31T06:19:33.744Z,95353.41
2019-03-31T06:22:01.958Z,95348.23
2019-03-31T06:24:30.056Z,95351.80
2019-03-31T06:26:58.116Z,95351.09
2019-03-31T06:29:26.174Z,95348.45
2019-03-31T06:31:54.198Z,95347.23
2019-03-31T06:34:22.201Z,95343.26
2019-03-31T06:36:50.211Z,95338.02
2019-03-31T06:39:18.289Z,95347.50
2019-03-31T06:41:46.752Z,95342.59
2019-03-31T06:44:14.794Z,95339.69
2019-03-31T06:46:43.249Z,95341.36
2019-03-31T06:49:11.759Z,95334.93
2019-03-31T06:51:39.699Z,95336.64
2019-03-31T06:54:08.376Z,95333.65
2019-03-31T06:56:36.601Z,95334.93
2019-03-31T06:59:04.721Z,95340.27
2019-03-31T07:01:32.950Z,95338.63
2019-03-31T07:04:00.961Z,95335.28
2019-03-31T07:06:28.999Z,95336.13
2019-03-31T07:08:57.044Z,95322.78
2019-03-31T07:11:25.047Z,95323.69
2019-03-31T07:13:53.039Z,95324.78
2019-03-31T07:16:21.027Z,95322.11
2019-03-31T07:18:49.197Z,95321.52
2019-03-31T07:21:17.162Z,95326.34
2019-03-31T07:23:45.199Z,95324.81
2019-03-31T07:26:13.287Z,95328.88
2019-03-31T07:28:41.404Z,95325.95
2019-03-31T07:31:09.596Z,95320.73
2019-03-31T07:33:37.621Z,95315.16
2019-03-31T07:36:05.657Z,95313.14
2019-03-31T07:38:39.238Z,95325.50
2019-03-31T07:41:12.553Z,95324.89
2019-03-31T07:43:33.655Z,95323.73
2019-03-31T07:46:01.648Z,95310.00
2019-03-31T07:48:29.686Z,95304.23
2019-03-31T07:50:57.642Z,95309.30
2019-03-31T07:53:25.774Z,95303.44
2019-03-31T07:55:53.853Z,95307.05
2019-03-31T07:58:22.040Z,95302.52
2019-03-31T08:00:50.049Z,95293.54
2019-03-31T08:03:18.094Z,95291.40
2019-03-31T08:05:46.106Z,95294.88
2019-03-31T08:08:14.196Z,95295.28
2019-03-31T08:10:43.609Z,95294.20
2019-03-31T08:13:11.752Z,95291.48
2019-03-31T08:15:39.776Z,95281.68
2019-03-31T08:18:07.816Z,95289.99
2019-03-31T08:20:35.846Z,95279.23
2019-03-31T08:23:03.848Z,95277.66
2019-03-31T08:25:31.853Z,95275.52
2019-03-31T08:28:00.007Z,95269.00
2019-03-31T08:30:28.264Z,95267.12
2019-03-31T08:32:56.485Z,95261.45
2019-03-31T08:35:24.552Z,95267.17
2019-03-31T08:37:52.497Z,95252.55
2019-03-31T08:40:20.729Z,95254.71
2019-03-31T08:42:48.832Z,95238.94
2019-03-31T08:45:17.127Z,95241.48
2019-03-31T08:47:45.171Z,95238.37
2019-03-31T08:50:14.020Z,95247.50
2019-03-31T08:52:42.039Z,95241.77
2019-03-31T08:55:11.464Z,95238.62
2019-03-31T08:57:39.582Z,95229.59
2019-03-31T09:00:13.535Z,95234.10
2019-03-31T09:02:41.571Z,95220.93
2019-03-31T09:05:10.123Z,95228.09
2019-03-31T09:07:41.601Z,95222.13
2019-03-31T09:10:09.691Z,95222.72
2019-03-31T09:12:38.278Z,95219.80
2019-03-31T09:15:09.412Z,95220.61
2019-03-31T09:17:37.755Z,95211.77
2019-03-31T09:20:06.795Z,95214.42
2019-03-31T09:22:34.908Z,95201.44
2019-03-31T09:25:03.153Z,95208.91
2019-03-31T09:27:32.076Z,95201.44
2019-03-31T09:30:00.522Z,95199.78
2019-03-31T09:32:28.783Z,95194.26
2019-03-31T09:34:56.946Z,95183.68
2019-03-31T09:37:25.151Z,95187.72
2019-03-31T09:39:53.249Z,95185.20
2019-03-31T09:42:21.359Z,95180.91
2019-03-31T09:44:49.504Z,95168.05
2019-03-31T09:47:17.573Z,95166.13
2019-03-31T09:49:45.641Z,95167.62
2019-03-31T09:52:13.768Z,95167.73
2019-03-31T09:54:41.788Z,95157.00
2019-03-31T09:57:09.892Z,95156.66
2019-03-31T09:59:37.871Z,95160.63
2019-03-31T10:02:06.068Z,95152.57
2019-03-31T10:04:34.129Z,95148.13
2019-03-31T10:07:02.268Z,95150.00
2019-03-31T10:09:30.714Z,95149.88
2019-03-31T10:11:58.909Z,95154.22
2019-03-31T10:14:27.079Z,95154.06
2019-03-31T10:16:55.229Z,95144.36
2019-03-31T10:19:23.426Z,95137.89
2019-03-31T10:21:51.605Z,95134.16
2019-03-31T10:24:19.572Z,95137.44
2019-03-31T10:26:47.681Z,95141.62
2019-03-31T10:29:15.824Z,95136.06
2019-03-31T10:31:43.894Z,95128.04
2019-03-31T10:34:12.079Z,95129.41
2019-03-31T10:36:44.741Z,95112.72
2019-03-31T10:39:10.602Z,95116.54
2019-03-31T10:41:39.036Z,95112.68
2019-03-31T10:44:07.257Z,95110.75
2019-03-31T10:46:35.547Z,95111.47
2019-03-31T10:49:03.796Z,95111.27
2019-03-31T10:51:31.926Z,95108.75
2019-03-31T10:54:00.190Z,95114.62
2019-03-31T10:56:28.315Z,95106.95
2019-03-31T10:58:57.192Z,95100.19
2019-03-31T11:01:25.269Z,95107.84
2019-03-31T11:03:53.239Z,95099.08
2019-03-31T11:06:21.436Z,95102.20
2019-03-31T11:08:49.864Z,95097.59
2019-03-31T11:11:18.175Z,95087.73
2019-03-31T11:13:46.215Z,95088.41
2019-03-31T11:16:15.013Z,95080.20
2019-03-31T11:18:43.104Z,95074.91
2019-03-31T11:21:18.202Z,95075.94
2019-03-31T11:23:46.484Z,95069.63
2019-03-31T11:26:14.473Z,95067.73
2019-03-31T11:28:42.706Z,95065.15
2019-03-31T11:31:10.890Z,95064.27
2019-03-31T11:33:38.878Z,95047.78
2019-03-31T11:36:07.489Z,95063.09
2019-03-31T11:38:37.219Z,95047.23
2019-03-31T11:41:07.244Z,95041.37
2019-03-31T11:43:35.368Z,95043.18
2019-03-31T11:46:03.581Z,95045.62
2019-03-31T11:48:32.565Z,95033.70
2019-03-31T11:51:00.641Z,95034.67
2019-03-31T11:53:28.680Z,95025.58
2019-03-31T11:55:56.873Z,95030.17
2019-03-31T11:58:25.068Z,95024.45
2019-03-31T12:00:55.730Z,95012.99
2019-03-31T12:03:23.855Z,95012.30
2019-03-31T12:05:51.969Z,95014.03
2019-03-31T12:08:20.038Z,95013.03
2019-03-31T12:10:48.063Z,95024.94
2019-03-31T12:13:16.046Z,95005.88
2019-03-31T12:15:44.198Z,95008.47
2019-03-31T12:18:12.381Z,95009.95
2019-03-31T12:20:40.510Z,95011.98
2019-03-31T12:23:08.555Z,95007.48
2019-03-31T12:25:37.185Z,94997.27
2019-03-31T12:28:05.365Z,94992.28
2019-03-31T12:30:33.489Z,94999.80
2019-03-31T12:33:01.462Z,95000.09
2019-03-31T12:35:29.482Z,94998.45
2019-03-31T12:37:57.603Z,94997.83
2019-03-31T12:40:30.171Z,94992.24
2019-03-31T12:42:58.358Z,94990.98
2019-03-31T12:45:26.541Z,94992.98
2019-03-31T12:47:54.552Z,94992.95
2019-03-31T12:50:22.759Z,94978.03
2019-03-31T12:52:51.272Z,94982.16
2019-03-31T12:55:19.514Z,94973.39
2019-03-31T12:57:47.629Z,94973.13
2019-03-31T13:00:16.572Z,94968.54
2019-03-31T13:02:45.805Z,94965.80
2019-03-31T13:05:13.841Z,94961.47
2019-03-31T13:07:55.450Z,94957.10
2019-03-31T13:10:12.231Z,94956.26
2019-03-31T13:12:40.272Z,94958.73
2019-03-31T13:15:08.999Z,94956.47
2019-03-31T13:17:37.279Z,94954.13
2019-03-31T13:20:05.895Z,94946.53
2019-03-31T13:22:33.969Z,94946.17
2019-03-31T13:25:02.771Z,94922.53
2019-03-31T13:27:31.001Z,94945.05
2019-03-31T13:29:59.006Z,94944.06
2019-03-31T13:32:27.149Z,94934.33
2019-03-31T13:34:55.180Z,94936.45
2019-03-31T13:37:23.193Z,94935.35
2019-03-31T13:39:51.299Z,94929.23
2019-03-31T13:42:19.261Z,94922.89
2019-03-31T13:44:47.460Z,94938.81
2019-03-31T13:47:15.551Z,94925.39
2019-03-31T13:49:43.569Z,94923.88
2019-03-31T13:52:11.701Z,94919.66
2019-03-31T13:54:39.786Z,94930.72
2019-03-31T13:57:08.832Z,94911.18
2019-03-31T13:59:37.835Z,94918.44
2019-03-31T14:02:06.362Z,94919.16
2019-03-31T14:04:40.323Z,94918.44
2019-03-31T14:07:04.652Z,94916.05
2019-03-31T14:09:32.814Z,94906.47
2019-03-31T14:12:01.634Z,94912.81
2019-03-31T14:14:30.809Z,94901.63
2019-03-31T14:16:58.830Z,94896.88
2019-03-31T14:19:27.349Z,94897.65
2019-03-31T14:21:55.475Z,94891.80
2019-03-31T14:24:26.764Z,94898.14
2019-03-31T14:26:53.539Z,94891.30
2019-03-31T14:29:21.806Z,94893.66
2019-03-31T14:31:51.994Z,94888.07
2019-03-31T14:34:19.830Z,94895.79
2019-03-31T14:36:47.954Z,94895.29
2019-03-31T14:39:17.275Z,94902.36
2019-03-31T14:41:45.471Z,94889.05
2019-03-31T14:44:13.540Z,94890.53
2019-03-31T14:46:41.748Z,94895.20
2019-03-31T14:49:09.781Z,94888.29
2019-03-31T14:51:37.811Z,94884.07
2019-03-31T14:54:05.832Z,94885.25
2019-03-31T14:56:33.870Z,94902.42
2019-03-31T14:59:02.001Z,94901.09
2019-03-31T15:01:30.108Z,94889.23
2019-03-31T15:03:58.172Z,94892.84
2019-03-31T15:06:26.286Z,94896.64
2019-03-31T15:08:54.857Z,94897.89
2019-03-31T15:11:23.008Z,94893.66
2019-03-31T15:13:50.991Z,94903.09
2019-03-31T15:16:19.140Z,94885.47
2019-03-31T15:18:47.378Z,94889.96
2019-03-31T15:21:15.426Z,94893.52
2019-03-31T15:23:43.856Z,94887.42
2019-03-31T15:26:11.904Z,94890.44
2019-03-31T15:28:40.024Z,94878.23
2019-03-31T15:31:08.305Z,94886.15
2019-03-31T15:33:36.359Z,94890.12
2019-03-31T15:36:04.532Z,94894.81
2019-03-31T15:38:32.690Z,94889.44
2019-03-31T15:41:00.670Z,94883.08
2019-03-31T15:43:28.798Z,94884.08
2019-03-31T15:45:56.969Z,94885.54
2019-03-31T15:48:25.258Z,94898.44
2019-03-31T15:50:53.432Z,94899.56
2019-03-31T15:53:21.581Z,94911.31
2019-03-31T15:55:49.821Z,94909.03
2019-03-31T15:58:18.109Z,94905.82
2019-03-31T16:00:46.180Z,94908.01
2019-03-31T16:03:14.339Z,94905.03
2019-03-31T16:05:42.493Z,94908.44
2019-03-31T16:08:10.164Z,94910.37
2019-03-31T16:10:37.731Z,94915.47
2019-03-31T16:13:05.232Z,94916.03
2019-03-31T16:15:33.037Z,94918.30
2019-03-31T16:18:00.460Z,94919.83
2019-03-31T16:20:27.952Z,94909.87
2019-03-31T16:22:55.456Z,94910.23
2019-03-31T16:25:31.886Z,94903.13
2019-03-31T16:27:59.484Z,94910.86
2019-03-31T16:30:27.571Z,94909.32
2019-03-31T16:32:55.512Z,94910.93
2019-03-31T16:35:23.192Z,94912.00
2019-03-31T16:37:50.730Z,94909.59
2019-03-31T16:40:18.237Z,94911.01
2019-03-31T16:42:45.811Z,94910.52
2019-03-31T16:45:13.753Z,94920.13
2019-03-31T16:47:41.418Z,94915.35
2019-03-31T16:50:10.020Z,94918.30
2019-03-31T16:52:37.599Z,94913.27
2019-03-31T16:55:05.618Z,94914.22
2019-03-31T16:57:33.179Z,94916.76
2019-03-31T17:00:00.765Z,94919.55
2019-03-31T17:02:28.282Z,94928.55
2019-03-31T17:04:55.804Z,94926.36
2019-03-31T17:07:23.292Z,94928.25
2019-03-31T17:09:56.261Z,94932.43
2019-03-31T17:12:24.419Z,94945.28
2019-03-31T17:14:52.295Z,94940.66
2019-03-31T17:17:19.876Z,94942.30
2019-03-31T17:19:47.347Z,94941.88
2019-03-31T17:22:14.906Z,94944.94
2019-03-31T17:24:42.702Z,94947.16
2019-03-31T17:27:13.883Z,94956.30
2019-03-31T17:29:40.064Z,94962.56
2019-03-31T17:32:07.900Z,94957.77
2019-03-31T17:34:35.960Z,94951.18
2019-03-31T17:37:03.676Z,94953.83
2019-03-31T17:39:31.211Z,94963.01
2019-03-31T17:41:58.767Z,94958.98
2019-03-31T17:44:26.235Z,94962.09
2019-03-31T17:46:53.835Z,94953.80
2019-03-31T17:49:21.279Z,94961.67
2019-03-31T17:51:48.975Z,94963.37
2019-03-31T17:54:16.537Z,94969.13
2019-03-31T17:56:44.538Z,94963.52
2019-03-31T17:59:11.922Z,94971.13
2019-03-31T18:01:39.499Z,94978.22
2019-03-31T18:04:07.046Z,94975.46
2019-03-31T18:06:34.572Z,94981.48
2019-03-31T18:09:04.151Z,94976.71
2019-03-31T18:11:31.853Z,94981.58
2019-03-31T18:13:59.498Z,94984.77
2019-03-31T18:16:27.087Z,95001.77
2019-03-31T18:18:54.633Z,94993.52
2019-03-31T18:21:22.230Z,94983.95
2019-03-31T18:23:49.858Z,94988.59
2019-03-31T18:26:17.385Z,94993.86
2019-03-31T18:28:44.828Z,94990.47
2019-03-31T18:31:12.357Z,94992.03
2019-03-31T18:33:40.747Z,94985.02
2019-03-31T18:36:08.435Z,94991.80
2019-03-31T18:38:35.934Z,95000.36
2019-03-31T18:41:04.562Z,95001.05
2019-03-31T18:43:32.078Z,95005.09
2019-03-31T18:46:00.096Z,94999.48
2019-03-31T18:48:27.579Z,95016.44
2019-03-31T18:50:55.389Z,95015.34
2019-03-31T18:53:35.965Z,95011.93
2019-03-31T18:56:14.127Z,95005.56
2019-03-31T18:58:58.015Z,95009.91
2019-03-31T19:01:41.821Z,95011.16
2019-03-31T19:04:35.209Z,95010.87
2019-03-31T19:07:23.020Z,95014.49
2019-03-31T19:09:59.693Z,95013.43
2019-03-31T19:12:49.588Z,95009.66
2019-03-31T19:15:42.805Z,95017.41
2019-03-31T19:18:19.137Z,95002.29
2019-03-31T19:21:10.476Z,95005.40
2019-03-31T19:23:34.338Z,95001.20
2019-03-31T19:26:22.811Z,95008.34
2019-03-31T19:29:27.933Z,95009.68
2019-03-31T19:32:14.060Z,95008.45
2019-03-31T19:35:07.158Z,95015.04
2019-03-31T19:38:05.966Z,95012.53
2019-03-31T19:41:03.274Z,95012.27
2019-03-31T19:43:39.195Z,95013.48
2019-03-31T19:46:21.760Z,95010.64
2019-03-31T19:49:11.604Z,95012.31
2019-03-31T19:52:06.778Z,95009.14
2019-03-31T19:54:44.252Z,95013.36
2019-03-31T19:57:31.712Z,95014.11
2019-03-31T20:00:30.692Z,95021.64
2019-03-31T20:03:10.052Z,95008.41
2019-03-31T20:05:55.624Z,95017.59
2019-03-31T20:08:37.874Z,95010.38
2019-03-31T20:11:33.853Z,95019.67
2019-03-31T20:14:19.793Z,95028.56
2019-03-31T20:17:13.148Z,95023.15
2019-03-31T20:20:09.495Z,95020.88
2019-03-31T20:22:48.788Z,95033.34
2019-03-31T20:25:27.553Z,95028.69
2019-03-31T20:28:23.801Z,95029.12
2019-03-31T20:31:09.624Z,95026.84
2019-03-31T20:33:52.568Z,95031.80
2019-03-31T20:36:39.698Z,95022.50
2019-03-31T20:39:56.101Z,95020.84
2019-03-31T20:42:18.387Z,95022.53
2019-03-31T20:44:45.862Z,95018.00
2019-03-31T20:47:13.550Z,95033.94
2019-03-31T20:49:41.021Z,95029.41
2019-03-31T20:52:08.566Z,95023.55
2019-03-31T20:54:36.266Z,95018.01
2019-03-31T20:57:03.986Z,95013.03
2019-03-31T20:59:31.574Z,95014.38
2019-03-31T21:01:59.111Z,95017.38
2019-03-31T21:04:26.766Z,95015.41
2019-03-31T21:06:54.209Z,95017.22
2019-03-31T21:09:21.736Z,95014.89
2019-03-31T21:11:49.386Z,95016.12
2019-03-31T21:14:17.167Z,95015.81
2019-03-31T21:16:44.663Z,95011.28
2019-03-31T21:19:12.223Z,94975.02
2019-03-31T21:21:39.716Z,95007.98
2019-03-31T21:24:07.240Z,95013.70
2019-03-31T21:26:34.796Z,95021.92
2019-03-31T21:29:02.326Z,95019.75
2019-03-31T21:31:29.798Z,95006.51
2019-03-31T21:33:57.273Z,95016.85
2019-03-31T21:36:24.767Z,95022.88
2019-03-31T21:38:52.217Z,95024.19
2019-03-31T21:41:19.686Z,95018.66
2019-03-31T21:43:47.158Z,95021.17
2019-03-31T21:46:14.633Z,95019.75
2019-03-31T21:48:42.205Z,95029.03
2019-03-31T21:51:09.729Z,95027.95
2019-03-31T21:53:37.311Z,95018.13
2019-03-31T21:56:04.753Z,95019.40
2019-03-31T21:58:32.351Z,95007.71
2019-03-31T22:01:00.317Z,95008.45
2019-03-31T22:03:27.814Z,95016.94
2019-03-31T22:05:55.354Z,95011.00
2019-03-31T22:08:22.962Z,95011.77
2019-03-31T22:10:50.464Z,95020.34
2019-03-31T22:13:18.088Z,95010.73
2019-03-31T22:15:45.555Z,95000.20
2019-03-31T22:18:13.225Z,95000.95
2019-03-31T22:20:40.779Z,95000.90
2019-03-31T22:23:08.218Z,94992.06
2019-03-31T22:25:37.435Z,94996.96
2019-03-31T22:28:04.886Z,94992.47
2019-03-31T22:30:33.511Z,95005.07
2019-03-31T22:33:01.153Z,95003.78
2019-03-31T22:35:28.744Z,94993.44
2019-03-31T22:37:56.485Z,94999.36
2019-03-31T22:40:24.191Z,94991.92
2019-03-31T22:42:51.666Z,94991.08
2019-03-31T22:45:19.215Z,94988.78
2019-03-31T22:47:46.668Z,94983.79
2019-03-31T22:50:14.356Z,94992.69
2019-03-31T22:52:42.003Z,94986.89
2019-03-31T22:55:09.746Z,94996.92
2019-03-31T22:57:37.177Z,94998.48
2019-03-31T23:00:05.608Z,94987.86
2019-03-31T23:02:33.163Z,94995.23
2019-03-31T23:05:02.167Z,94990.06
2019-03-31T23:07:29.748Z,94984.98
2019-03-31T23:09:57.192Z,94986.95
2019-03-31T23:12:24.598Z,94983.69
2019-03-31T23:14:52.028Z,94980.90
2019-03-31T23:17:19.819Z,94979.07
2019-03-31T23:19:47.274Z,94973.23
2019-03-31T23:22:14.689Z,94984.50
2019-03-31T23:24:42.143Z,94988.45
2019-03-31T23:27:09.594Z,94984.77
2019-03-31T23:29:37.096Z,94975.81
2019-03-31T23:32:04.525Z,94983.09
2019-03-31T23:34:32.032Z,94974.98
2019-03-31T23:36:59.409Z,94979.56
2019-03-31T23:39:26.874Z,94970.58
2019-03-31T23:41:54.385Z,94961.47
2019-03-31T23:44:21.837Z,94924.13
2019-03-31T23:46:49.283Z,94963.27
2019-03-31T23:49:16.757Z,94970.94
2019-03-31T23:51:44.246Z,94968.89
2019-03-31T23:54:11.698Z,94962.80
2019-03-31T23:56:39.218Z,94970.61
2019-03-31T23:59:06.832Z,94963.87
